sensor_id;sensor_type;location;lat;lon;timestamp;P1;durP1;ratioP1;P2;durP2;ratioP2
68310;SDS011;55157;51.036;17.058;2022-07-05T00:01:45;11.18;;;5.22;;
68310;SDS011;55157;51.036;17.058;2022-07-05T00:04:10;9.30;;;4.10;;
68310;SDS011;55157;51.036;17.058;2022-07-05T00:06:35;9.10;;;4.75;;
68310;SDS011;55157;51.036;17.058;2022-07-05T00:09:00;9.50;;;4.35;;
68310;SDS011;55157;51.036;17.058;2022-07-05T00:11:26;7.40;;;4.95;;
68310;SDS011;55157;51.036;17.058;2022-07-05T00:13:51;9.82;;;5.05;;
68310;SDS011;55157;51.036;17.058;2022-07-05T00:16:16;7.43;;;4.53;;
68310;SDS011;55157;51.036;17.058;2022-07-05T00:18:43;5.20;;;4.35;;
68310;SDS011;55157;51.036;17.058;2022-07-05T00:21:08;9.40;;;4.53;;
68310;SDS011;55157;51.036;17.058;2022-07-05T00:23:34;7.00;;;4.30;;
68310;SDS011;55157;51.036;17.058;2022-07-05T00:25:59;12.73;;;4.43;;
68310;SDS011;55157;51.036;17.058;2022-07-05T00:28:24;9.38;;;4.90;;
68310;SDS011;55157;51.036;17.058;2022-07-05T00:30:49;14.90;;;5.78;;
68310;SDS011;55157;51.036;17.058;2022-07-05T00:33:15;8.60;;;4.75;;
68310;SDS011;55157;51.036;17.058;2022-07-05T00:35:42;8.93;;;4.07;;
68310;SDS011;55157;51.036;17.058;2022-07-05T00:38:07;7.75;;;4.53;;
68310;SDS011;55157;51.036;17.058;2022-07-05T00:40:32;8.60;;;4.78;;
68310;SDS011;55157;51.036;17.058;2022-07-05T00:42:58;8.15;;;3.28;;
68310;SDS011;55157;51.036;17.058;2022-07-05T00:45:23;9.93;;;3.58;;
68310;SDS011;55157;51.036;17.058;2022-07-05T00:47:48;7.88;;;3.85;;
68310;SDS011;55157;51.036;17.058;2022-07-05T00:50:13;5.10;;;3.42;;
68310;SDS011;55157;51.036;17.058;2022-07-05T00:52:40;6.95;;;4.30;;
68310;SDS011;55157;51.036;17.058;2022-07-05T00:55:06;9.23;;;4.57;;
68310;SDS011;55157;51.036;17.058;2022-07-05T00:57:32;6.15;;;4.15;;
68310;SDS011;55157;51.036;17.058;2022-07-05T00:59:57;7.80;;;5.28;;
68310;SDS011;55157;51.036;17.058;2022-07-05T01:02:23;11.80;;;5.03;;
68310;SDS011;55157;51.036;17.058;2022-07-05T01:04:48;6.80;;;4.43;;
68310;SDS011;55157;51.036;17.058;2022-07-05T01:07:14;53.97;;;7.78;;
68310;SDS011;55157;51.036;17.058;2022-07-05T01:09:40;33.63;;;5.20;;
68310;SDS011;55157;51.036;17.058;2022-07-05T01:12:06;6.13;;;4.07;;
68310;SDS011;55157;51.036;17.058;2022-07-05T01:14:33;8.50;;;3.92;;
68310;SDS011;55157;51.036;17.058;2022-07-05T01:16:58;11.60;;;5.00;;
68310;SDS011;55157;51.036;17.058;2022-07-05T01:19:24;5.88;;;4.10;;
68310;SDS011;55157;51.036;17.058;2022-07-05T01:21:49;11.20;;;3.72;;
68310;SDS011;55157;51.036;17.058;2022-07-05T01:24:16;11.05;;;3.95;;
68310;SDS011;55157;51.036;17.058;2022-07-05T01:26:43;6.70;;;3.95;;
68310;SDS011;55157;51.036;17.058;2022-07-05T01:29:08;7.53;;;3.90;;
68310;SDS011;55157;51.036;17.058;2022-07-05T01:31:35;7.03;;;3.58;;
68310;SDS011;55157;51.036;17.058;2022-07-05T01:34:01;7.30;;;3.88;;
68310;SDS011;55157;51.036;17.058;2022-07-05T01:36:26;5.70;;;3.25;;
68310;SDS011;55157;51.036;17.058;2022-07-05T01:38:52;4.85;;;3.35;;
68310;SDS011;55157;51.036;17.058;2022-07-05T01:41:18;6.20;;;3.10;;
68310;SDS011;55157;51.036;17.058;2022-07-05T01:43:44;5.55;;;3.50;;
68310;SDS011;55157;51.036;17.058;2022-07-05T01:46:09;4.80;;;3.60;;
68310;SDS011;55157;51.036;17.058;2022-07-05T01:48:35;9.27;;;3.63;;
68310;SDS011;55157;51.036;17.058;2022-07-05T01:51:04;4.75;;;3.13;;
68310;SDS011;55157;51.036;17.058;2022-07-05T01:53:30;7.72;;;4.30;;
68310;SDS011;55157;51.036;17.058;2022-07-05T01:55:56;9.55;;;4.22;;
68310;SDS011;55157;51.036;17.058;2022-07-05T01:58:23;8.13;;;4.43;;
68310;SDS011;55157;51.036;17.058;2022-07-05T02:00:50;10.00;;;4.63;;
68310;SDS011;55157;51.036;17.058;2022-07-05T02:03:16;7.13;;;4.32;;
68310;SDS011;55157;51.036;17.058;2022-07-05T02:05:41;13.05;;;5.00;;
68310;SDS011;55157;51.036;17.058;2022-07-05T02:08:07;11.43;;;4.07;;
68310;SDS011;55157;51.036;17.058;2022-07-05T02:10:32;11.05;;;4.55;;
68310;SDS011;55157;51.036;17.058;2022-07-05T02:12:59;9.02;;;4.78;;
68310;SDS011;55157;51.036;17.058;2022-07-05T02:15:25;9.85;;;4.50;;
68310;SDS011;55157;51.036;17.058;2022-07-05T02:17:50;5.68;;;4.07;;
68310;SDS011;55157;51.036;17.058;2022-07-05T02:20:16;5.00;;;3.80;;
68310;SDS011;55157;51.036;17.058;2022-07-05T02:22:41;6.05;;;4.60;;
68310;SDS011;55157;51.036;17.058;2022-07-05T02:25:07;5.13;;;4.00;;
68310;SDS011;55157;51.036;17.058;2022-07-05T02:27:32;6.18;;;3.78;;
68310;SDS011;55157;51.036;17.058;2022-07-05T02:29:57;11.63;;;4.15;;
68310;SDS011;55157;51.036;17.058;2022-07-05T02:32:24;5.70;;;4.05;;
68310;SDS011;55157;51.036;17.058;2022-07-05T02:34:50;5.38;;;3.65;;
68310;SDS011;55157;51.036;17.058;2022-07-05T02:37:15;10.88;;;3.95;;
68310;SDS011;55157;51.036;17.058;2022-07-05T02:39:40;6.18;;;3.97;;
68310;SDS011;55157;51.036;17.058;2022-07-05T02:42:05;7.03;;;4.22;;
68310;SDS011;55157;51.036;17.058;2022-07-05T02:44:31;10.38;;;4.15;;
68310;SDS011;55157;51.036;17.058;2022-07-05T02:46:56;5.13;;;3.47;;
68310;SDS011;55157;51.036;17.058;2022-07-05T02:49:23;6.57;;;4.00;;
68310;SDS011;55157;51.036;17.058;2022-07-05T02:51:48;5.45;;;4.10;;
68310;SDS011;55157;51.036;17.058;2022-07-05T02:54:13;7.70;;;3.60;;
68310;SDS011;55157;51.036;17.058;2022-07-05T02:56:38;5.43;;;3.63;;
68310;SDS011;55157;51.036;17.058;2022-07-05T02:59:04;7.78;;;4.43;;
68310;SDS011;55157;51.036;17.058;2022-07-05T03:01:29;9.60;;;4.70;;
68310;SDS011;55157;51.036;17.058;2022-07-05T03:03:54;14.88;;;5.07;;
68310;SDS011;55157;51.036;17.058;2022-07-05T03:06:21;9.00;;;4.00;;
68310;SDS011;55157;51.036;17.058;2022-07-05T03:08:46;11.85;;;5.10;;
68310;SDS011;55157;51.036;17.058;2022-07-05T03:11:11;14.32;;;5.00;;
68310;SDS011;55157;51.036;17.058;2022-07-05T03:13:37;11.40;;;4.75;;
68310;SDS011;55157;51.036;17.058;2022-07-05T03:16:02;15.65;;;5.07;;
68310;SDS011;55157;51.036;17.058;2022-07-05T03:18:27;18.35;;;5.15;;
68310;SDS011;55157;51.036;17.058;2022-07-05T03:20:53;14.77;;;4.85;;
68310;SDS011;55157;51.036;17.058;2022-07-05T03:23:19;13.45;;;5.13;;
68310;SDS011;55157;51.036;17.058;2022-07-05T03:25:44;9.77;;;4.80;;
68310;SDS011;55157;51.036;17.058;2022-07-05T03:28:10;18.00;;;4.60;;
68310;SDS011;55157;51.036;17.058;2022-07-05T03:30:35;8.32;;;4.63;;
68310;SDS011;55157;51.036;17.058;2022-07-05T03:33:00;10.15;;;4.40;;
68310;SDS011;55157;51.036;17.058;2022-07-05T03:35:26;12.23;;;4.60;;
68310;SDS011;55157;51.036;17.058;2022-07-05T03:37:51;10.90;;;5.40;;
68310;SDS011;55157;51.036;17.058;2022-07-05T03:40:18;11.38;;;4.82;;
68310;SDS011;55157;51.036;17.058;2022-07-05T03:42:43;12.18;;;5.68;;
68310;SDS011;55157;51.036;17.058;2022-07-05T03:45:09;15.45;;;8.23;;
68310;SDS011;55157;51.036;17.058;2022-07-05T03:47:34;16.80;;;9.60;;
68310;SDS011;55157;51.036;17.058;2022-07-05T03:50:00;20.67;;;11.10;;
68310;SDS011;55157;51.036;17.058;2022-07-05T03:52:25;19.65;;;9.25;;
68310;SDS011;55157;51.036;17.058;2022-07-05T03:54:50;10.55;;;6.18;;
68310;SDS011;55157;51.036;17.058;2022-07-05T03:57:17;18.90;;;6.60;;
68310;SDS011;55157;51.036;17.058;2022-07-05T03:59:42;9.93;;;4.97;;
68310;SDS011;55157;51.036;17.058;2022-07-05T04:02:07;14.40;;;4.78;;
68310;SDS011;55157;51.036;17.058;2022-07-05T04:04:33;12.23;;;4.72;;
68310;SDS011;55157;51.036;17.058;2022-07-05T04:06:58;13.15;;;5.00;;
68310;SDS011;55157;51.036;17.058;2022-07-05T04:09:23;21.02;;;4.38;;
68310;SDS011;55157;51.036;17.058;2022-07-05T04:11:48;11.07;;;4.10;;
68310;SDS011;55157;51.036;17.058;2022-07-05T04:14:15;13.55;;;5.20;;
68310;SDS011;55157;51.036;17.058;2022-07-05T04:16:40;14.73;;;5.05;;
68310;SDS011;55157;51.036;17.058;2022-07-05T04:19:06;9.30;;;4.70;;
68310;SDS011;55157;51.036;17.058;2022-07-05T04:21:31;13.10;;;4.38;;
68310;SDS011;55157;51.036;17.058;2022-07-05T04:23:56;14.98;;;4.97;;
68310;SDS011;55157;51.036;17.058;2022-07-05T04:26:21;11.65;;;5.18;;
68310;SDS011;55157;51.036;17.058;2022-07-05T04:28:47;10.68;;;5.50;;
68310;SDS011;55157;51.036;17.058;2022-07-05T04:31:13;20.27;;;6.22;;
68310;SDS011;55157;51.036;17.058;2022-07-05T04:33:39;9.05;;;5.68;;
68310;SDS011;55157;51.036;17.058;2022-07-05T04:36:04;14.80;;;5.63;;
68310;SDS011;55157;51.036;17.058;2022-07-05T04:38:30;9.90;;;4.38;;
68310;SDS011;55157;51.036;17.058;2022-07-05T04:40:55;7.60;;;4.40;;
68310;SDS011;55157;51.036;17.058;2022-07-05T04:43:20;8.55;;;3.90;;
68310;SDS011;55157;51.036;17.058;2022-07-05T04:45:45;16.10;;;4.53;;
68310;SDS011;55157;51.036;17.058;2022-07-05T04:48:12;11.00;;;4.07;;
68310;SDS011;55157;51.036;17.058;2022-07-05T04:50:37;18.88;;;4.32;;
68310;SDS011;55157;51.036;17.058;2022-07-05T04:53:03;12.40;;;5.13;;
68310;SDS011;55157;51.036;17.058;2022-07-05T04:55:28;12.57;;;4.28;;
68310;SDS011;55157;51.036;17.058;2022-07-05T04:57:53;11.38;;;4.28;;
68310;SDS011;55157;51.036;17.058;2022-07-05T05:00:18;6.18;;;4.60;;
68310;SDS011;55157;51.036;17.058;2022-07-05T05:02:43;12.40;;;4.40;;
68310;SDS011;55157;51.036;17.058;2022-07-05T05:05:10;20.27;;;4.72;;
68310;SDS011;55157;51.036;17.058;2022-07-05T05:07:35;17.58;;;6.30;;
68310;SDS011;55157;51.036;17.058;2022-07-05T05:10:01;10.05;;;4.97;;
68310;SDS011;55157;51.036;17.058;2022-07-05T05:12:26;8.98;;;5.40;;
68310;SDS011;55157;51.036;17.058;2022-07-05T05:14:51;13.40;;;4.80;;
68310;SDS011;55157;51.036;17.058;2022-07-05T05:17:17;7.63;;;5.07;;
68310;SDS011;55157;51.036;17.058;2022-07-05T05:19:42;13.13;;;4.40;;
68310;SDS011;55157;51.036;17.058;2022-07-05T05:22:09;20.33;;;5.22;;
68310;SDS011;55157;51.036;17.058;2022-07-05T05:24:34;15.35;;;4.90;;
68310;SDS011;55157;51.036;17.058;2022-07-05T05:26:59;16.73;;;4.90;;
68310;SDS011;55157;51.036;17.058;2022-07-05T05:29:24;13.65;;;4.93;;
68310;SDS011;55157;51.036;17.058;2022-07-05T05:31:50;14.73;;;5.40;;
68310;SDS011;55157;51.036;17.058;2022-07-05T05:34:15;12.48;;;4.88;;
68310;SDS011;55157;51.036;17.058;2022-07-05T05:36:40;15.02;;;4.47;;
68310;SDS011;55157;51.036;17.058;2022-07-05T05:39:07;10.52;;;4.88;;
68310;SDS011;55157;51.036;17.058;2022-07-05T05:41:32;10.07;;;4.95;;
68310;SDS011;55157;51.036;17.058;2022-07-05T05:43:57;7.28;;;4.70;;
68310;SDS011;55157;51.036;17.058;2022-07-05T05:46:23;11.48;;;4.65;;
68310;SDS011;55157;51.036;17.058;2022-07-05T05:48:48;7.10;;;4.97;;
68310;SDS011;55157;51.036;17.058;2022-07-05T05:51:13;6.22;;;4.55;;
68310;SDS011;55157;51.036;17.058;2022-07-05T05:53:38;10.25;;;4.40;;
68310;SDS011;55157;51.036;17.058;2022-07-05T05:56:05;20.88;;;6.22;;
68310;SDS011;55157;51.036;17.058;2022-07-05T05:58:31;23.38;;;5.18;;
68310;SDS011;55157;51.036;17.058;2022-07-05T06:00:56;15.95;;;5.03;;
68310;SDS011;55157;51.036;17.058;2022-07-05T06:03:22;19.52;;;5.82;;
68310;SDS011;55157;51.036;17.058;2022-07-05T06:05:47;13.55;;;5.10;;
68310;SDS011;55157;51.036;17.058;2022-07-05T06:08:12;12.23;;;4.63;;
68310;SDS011;55157;51.036;17.058;2022-07-05T06:10:38;14.90;;;5.00;;
68310;SDS011;55157;51.036;17.058;2022-07-05T06:13:05;22.45;;;6.28;;
68310;SDS011;55157;51.036;17.058;2022-07-05T06:15:31;25.90;;;6.53;;
68310;SDS011;55157;51.036;17.058;2022-07-05T06:17:56;19.88;;;5.45;;
68310;SDS011;55157;51.036;17.058;2022-07-05T06:20:22;15.60;;;5.22;;
68310;SDS011;55157;51.036;17.058;2022-07-05T06:22:49;8.27;;;5.68;;
68310;SDS011;55157;51.036;17.058;2022-07-05T06:25:15;14.00;;;6.00;;
68310;SDS011;55157;51.036;17.058;2022-07-05T06:27:40;15.98;;;6.10;;
68310;SDS011;55157;51.036;17.058;2022-07-05T06:30:08;48.70;;;8.63;;
68310;SDS011;55157;51.036;17.058;2022-07-05T06:32:33;21.85;;;7.68;;
68310;SDS011;55157;51.036;17.058;2022-07-05T06:34:59;26.55;;;9.05;;
68310;SDS011;55157;51.036;17.058;2022-07-05T06:37:24;13.57;;;8.02;;
68310;SDS011;55157;51.036;17.058;2022-07-05T06:39:49;8.77;;;7.88;;
68310;SDS011;55157;51.036;17.058;2022-07-05T06:42:14;14.00;;;7.15;;
68310;SDS011;55157;51.036;17.058;2022-07-05T06:44:40;13.52;;;7.20;;
68310;SDS011;55157;51.036;17.058;2022-07-05T06:47:06;17.60;;;9.05;;
68310;SDS011;55157;51.036;17.058;2022-07-05T06:49:32;14.68;;;9.60;;
68310;SDS011;55157;51.036;17.058;2022-07-05T06:51:57;19.73;;;8.70;;
68310;SDS011;55157;51.036;17.058;2022-07-05T06:54:22;14.35;;;6.75;;
68310;SDS011;55157;51.036;17.058;2022-07-05T06:56:48;15.88;;;7.50;;
68310;SDS011;55157;51.036;17.058;2022-07-05T06:59:13;13.35;;;6.25;;
68310;SDS011;55157;51.036;17.058;2022-07-05T07:01:38;13.73;;;6.10;;
68310;SDS011;55157;51.036;17.058;2022-07-05T07:04:05;14.20;;;6.40;;
68310;SDS011;55157;51.036;17.058;2022-07-05T07:06:30;12.32;;;5.75;;
68310;SDS011;55157;51.036;17.058;2022-07-05T07:08:56;15.23;;;6.75;;
68310;SDS011;55157;51.036;17.058;2022-07-05T07:11:21;20.08;;;6.63;;
68310;SDS011;55157;51.036;17.058;2022-07-05T07:13:46;22.73;;;6.63;;
68310;SDS011;55157;51.036;17.058;2022-07-05T07:16:11;11.68;;;6.22;;
68310;SDS011;55157;51.036;17.058;2022-07-05T07:18:37;11.50;;;6.53;;
68310;SDS011;55157;51.036;17.058;2022-07-05T07:21:03;16.13;;;5.72;;
68310;SDS011;55157;51.036;17.058;2022-07-05T07:23:29;9.32;;;5.25;;
68310;SDS011;55157;51.036;17.058;2022-07-05T07:25:54;9.35;;;5.57;;
68310;SDS011;55157;51.036;17.058;2022-07-05T07:28:19;12.75;;;6.20;;
68310;SDS011;55157;51.036;17.058;2022-07-05T07:30:44;10.07;;;5.95;;
68310;SDS011;55157;51.036;17.058;2022-07-05T07:33:10;16.35;;;6.68;;
68310;SDS011;55157;51.036;17.058;2022-07-05T07:35:35;13.73;;;7.00;;
68310;SDS011;55157;51.036;17.058;2022-07-05T07:38:02;10.73;;;6.47;;
68310;SDS011;55157;51.036;17.058;2022-07-05T07:40:27;12.13;;;7.13;;
68310;SDS011;55157;51.036;17.058;2022-07-05T07:42:52;10.35;;;6.55;;
68310;SDS011;55157;51.036;17.058;2022-07-05T07:45:18;12.45;;;6.35;;
68310;SDS011;55157;51.036;17.058;2022-07-05T07:47:43;14.90;;;6.72;;
68310;SDS011;55157;51.036;17.058;2022-07-05T07:50:08;12.32;;;7.05;;
68310;SDS011;55157;51.036;17.058;2022-07-05T07:52:34;12.18;;;6.50;;
68310;SDS011;55157;51.036;17.058;2022-07-05T07:55:01;11.55;;;6.50;;
68310;SDS011;55157;51.036;17.058;2022-07-05T07:57:26;11.40;;;6.15;;
68310;SDS011;55157;51.036;17.058;2022-07-05T07:59:51;8.10;;;4.82;;
68310;SDS011;55157;51.036;17.058;2022-07-05T08:02:17;9.00;;;4.65;;
68310;SDS011;55157;51.036;17.058;2022-07-05T08:04:42;46.42;;;12.27;;
68310;SDS011;55157;51.036;17.058;2022-07-05T08:07:08;11.63;;;5.30;;
68310;SDS011;55157;51.036;17.058;2022-07-05T08:09:33;8.88;;;4.53;;
68310;SDS011;55157;51.036;17.058;2022-07-05T08:12:00;32.75;;;5.05;;
68310;SDS011;55157;51.036;17.058;2022-07-05T08:14:25;18.05;;;5.28;;
68310;SDS011;55157;51.036;17.058;2022-07-05T08:16:50;12.65;;;3.60;;
68310;SDS011;55157;51.036;17.058;2022-07-05T08:19:16;13.77;;;5.03;;
68310;SDS011;55157;51.036;17.058;2022-07-05T08:21:41;24.67;;;3.83;;
68310;SDS011;55157;51.036;17.058;2022-07-05T08:24:07;11.00;;;3.85;;
68310;SDS011;55157;51.036;17.058;2022-07-05T08:26:33;4.82;;;4.20;;
68310;SDS011;55157;51.036;17.058;2022-07-05T08:29:00;9.23;;;4.03;;
68310;SDS011;55157;51.036;17.058;2022-07-05T08:31:25;9.30;;;4.90;;
68310;SDS011;55157;51.036;17.058;2022-07-05T08:33:51;9.70;;;5.18;;
68310;SDS011;55157;51.036;17.058;2022-07-05T08:36:16;13.25;;;5.55;;
68310;SDS011;55157;51.036;17.058;2022-07-05T08:38:41;13.35;;;6.90;;
68310;SDS011;55157;51.036;17.058;2022-07-05T08:41:07;13.80;;;7.13;;
68310;SDS011;55157;51.036;17.058;2022-07-05T08:43:32;7.80;;;5.85;;
68310;SDS011;55157;51.036;17.058;2022-07-05T08:46:01;7.63;;;4.70;;
68310;SDS011;55157;51.036;17.058;2022-07-05T08:48:27;10.30;;;3.88;;
68310;SDS011;55157;51.036;17.058;2022-07-05T08:50:52;6.63;;;4.07;;
68310;SDS011;55157;51.036;17.058;2022-07-05T08:53:19;6.30;;;3.38;;
68310;SDS011;55157;51.036;17.058;2022-07-05T08:55:44;3.85;;;2.65;;
68310;SDS011;55157;51.036;17.058;2022-07-05T08:58:10;7.45;;;2.60;;
68310;SDS011;55157;51.036;17.058;2022-07-05T09:00:36;7.57;;;2.47;;
68310;SDS011;55157;51.036;17.058;2022-07-05T09:03:03;7.88;;;2.30;;
68310;SDS011;55157;51.036;17.058;2022-07-05T09:05:28;4.93;;;2.35;;
68310;SDS011;55157;51.036;17.058;2022-07-05T09:07:58;7.85;;;2.10;;
68310;SDS011;55157;51.036;17.058;2022-07-05T09:10:24;6.15;;;2.50;;
68310;SDS011;55157;51.036;17.058;2022-07-05T09:12:50;8.20;;;2.60;;
68310;SDS011;55157;51.036;17.058;2022-07-05T09:15:15;13.48;;;2.22;;
68310;SDS011;55157;51.036;17.058;2022-07-05T09:17:43;4.38;;;1.95;;
68310;SDS011;55157;51.036;17.058;2022-07-05T09:20:11;8.43;;;2.15;;
68310;SDS011;55157;51.036;17.058;2022-07-05T09:22:43;5.75;;;2.08;;
68310;SDS011;55157;51.036;17.058;2022-07-05T09:25:12;5.60;;;2.25;;
68310;SDS011;55157;51.036;17.058;2022-07-05T09:27:42;9.05;;;2.80;;
68310;SDS011;55157;51.036;17.058;2022-07-05T09:30:12;12.23;;;2.67;;
68310;SDS011;55157;51.036;17.058;2022-07-05T09:32:47;6.50;;;2.53;;
68310;SDS011;55157;51.036;17.058;2022-07-05T09:35:20;18.13;;;2.67;;
68310;SDS011;55157;51.036;17.058;2022-07-05T09:37:45;7.07;;;2.42;;
68310;SDS011;55157;51.036;17.058;2022-07-05T09:40:10;5.68;;;2.35;;
68310;SDS011;55157;51.036;17.058;2022-07-05T09:42:35;6.93;;;2.13;;
68310;SDS011;55157;51.036;17.058;2022-07-05T09:45:01;8.13;;;2.40;;
68310;SDS011;55157;51.036;17.058;2022-07-05T09:47:26;4.88;;;2.60;;
68310;SDS011;55157;51.036;17.058;2022-07-05T09:49:52;4.97;;;2.65;;
68310;SDS011;55157;51.036;17.058;2022-07-05T09:52:28;4.20;;;2.40;;
68310;SDS011;55157;51.036;17.058;2022-07-05T09:55:00;4.25;;;2.90;;
68310;SDS011;55157;51.036;17.058;2022-07-05T09:57:26;17.88;;;4.07;;
68310;SDS011;55157;51.036;17.058;2022-07-05T09:59:57;4.40;;;2.67;;
68310;SDS011;55157;51.036;17.058;2022-07-05T10:02:24;7.95;;;3.10;;
68310;SDS011;55157;51.036;17.058;2022-07-05T10:05:08;7.75;;;2.90;;
68310;SDS011;55157;51.036;17.058;2022-07-05T10:07:35;10.02;;;2.55;;
68310;SDS011;55157;51.036;17.058;2022-07-05T10:10:00;17.52;;;3.20;;
68310;SDS011;55157;51.036;17.058;2022-07-05T10:12:26;9.18;;;2.30;;
68310;SDS011;55157;51.036;17.058;2022-07-05T10:14:51;16.83;;;3.33;;
68310;SDS011;55157;51.036;17.058;2022-07-05T10:17:17;7.00;;;2.70;;
68310;SDS011;55157;51.036;17.058;2022-07-05T10:19:43;5.03;;;2.42;;
68310;SDS011;55157;51.036;17.058;2022-07-05T10:22:11;5.78;;;2.50;;
68310;SDS011;55157;51.036;17.058;2022-07-05T10:24:37;10.75;;;3.03;;
68310;SDS011;55157;51.036;17.058;2022-07-05T10:27:05;6.95;;;2.85;;
68310;SDS011;55157;51.036;17.058;2022-07-05T10:29:31;8.95;;;3.72;;
68310;SDS011;55157;51.036;17.058;2022-07-05T10:31:57;9.98;;;3.53;;
68310;SDS011;55157;51.036;17.058;2022-07-05T10:34:23;12.15;;;5.50;;
68310;SDS011;55157;51.036;17.058;2022-07-05T10:36:54;17.17;;;6.85;;
68310;SDS011;55157;51.036;17.058;2022-07-05T10:39:20;22.35;;;6.50;;
68310;SDS011;55157;51.036;17.058;2022-07-05T10:41:47;13.70;;;6.55;;
68310;SDS011;55157;51.036;17.058;2022-07-05T10:44:16;14.05;;;6.50;;
68310;SDS011;55157;51.036;17.058;2022-07-05T10:46:50;9.55;;;4.93;;
68310;SDS011;55157;51.036;17.058;2022-07-05T10:49:16;14.52;;;5.18;;
68310;SDS011;55157;51.036;17.058;2022-07-05T10:51:41;11.27;;;5.03;;
68310;SDS011;55157;51.036;17.058;2022-07-05T10:54:07;8.27;;;4.90;;
68310;SDS011;55157;51.036;17.058;2022-07-05T10:56:32;7.80;;;3.83;;
68310;SDS011;55157;51.036;17.058;2022-07-05T10:59:05;6.90;;;3.33;;
68310;SDS011;55157;51.036;17.058;2022-07-05T11:01:34;8.07;;;3.53;;
68310;SDS011;55157;51.036;17.058;2022-07-05T11:04:07;7.00;;;3.22;;
68310;SDS011;55157;51.036;17.058;2022-07-05T11:06:39;10.35;;;3.72;;
68310;SDS011;55157;51.036;17.058;2022-07-05T11:09:14;6.80;;;4.15;;
68310;SDS011;55157;51.036;17.058;2022-07-05T11:11:40;9.73;;;3.28;;
68310;SDS011;55157;51.036;17.058;2022-07-05T11:17:10;5.80;;;3.22;;
68310;SDS011;55157;51.036;17.058;2022-07-05T11:19:37;8.32;;;2.80;;
68310;SDS011;55157;51.036;17.058;2022-07-05T11:22:22;10.10;;;3.30;;
68310;SDS011;55157;51.036;17.058;2022-07-05T11:24:47;6.82;;;3.85;;
68310;SDS011;55157;51.036;17.058;2022-07-05T11:27:12;7.25;;;4.80;;
68310;SDS011;55157;51.036;17.058;2022-07-05T11:29:42;12.55;;;6.80;;
68310;SDS011;55157;51.036;17.058;2022-07-05T11:32:08;10.43;;;8.32;;
68310;SDS011;55157;51.036;17.058;2022-07-05T11:34:33;13.60;;;8.82;;
68310;SDS011;55157;51.036;17.058;2022-07-05T11:42:07;11.90;;;5.60;;
68310;SDS011;55157;51.036;17.058;2022-07-05T11:44:33;11.90;;;5.93;;
68310;SDS011;55157;51.036;17.058;2022-07-05T11:47:00;13.32;;;5.68;;
68310;SDS011;55157;51.036;17.058;2022-07-05T11:49:25;9.50;;;5.32;;
68310;SDS011;55157;51.036;17.058;2022-07-05T11:51:54;7.80;;;5.47;;
68310;SDS011;55157;51.036;17.058;2022-07-05T11:54:22;7.22;;;4.32;;
68310;SDS011;55157;51.036;17.058;2022-07-05T11:56:47;16.55;;;4.43;;
68310;SDS011;55157;51.036;17.058;2022-07-05T11:59:18;9.23;;;4.43;;
68310;SDS011;55157;51.036;17.058;2022-07-05T12:01:44;11.10;;;4.13;;
68310;SDS011;55157;51.036;17.058;2022-07-05T12:04:11;12.82;;;4.43;;
68310;SDS011;55157;51.036;17.058;2022-07-05T12:06:40;13.50;;;4.28;;
68310;SDS011;55157;51.036;17.058;2022-07-05T12:09:05;10.77;;;4.15;;
68310;SDS011;55157;51.036;17.058;2022-07-05T12:11:30;5.57;;;2.55;;
68310;SDS011;55157;51.036;17.058;2022-07-05T12:13:55;4.47;;;3.22;;
68310;SDS011;55157;51.036;17.058;2022-07-05T12:16:21;10.30;;;2.90;;
68310;SDS011;55157;51.036;17.058;2022-07-05T12:18:47;14.88;;;3.70;;
68310;SDS011;55157;51.036;17.058;2022-07-05T12:21:14;11.98;;;3.22;;
68310;SDS011;55157;51.036;17.058;2022-07-05T12:23:40;9.73;;;2.58;;
68310;SDS011;55157;51.036;17.058;2022-07-05T12:26:06;11.95;;;2.63;;
68310;SDS011;55157;51.036;17.058;2022-07-05T12:28:31;11.85;;;2.08;;
68310;SDS011;55157;51.036;17.058;2022-07-05T12:30:56;3.92;;;1.55;;
68310;SDS011;55157;51.036;17.058;2022-07-05T12:33:22;10.85;;;1.80;;
68310;SDS011;55157;51.036;17.058;2022-07-05T12:35:47;2.38;;;1.45;;
68310;SDS011;55157;51.036;17.058;2022-07-05T12:38:15;6.85;;;1.80;;
68310;SDS011;55157;51.036;17.058;2022-07-05T12:40:40;4.03;;;1.60;;
68310;SDS011;55157;51.036;17.058;2022-07-05T12:43:06;7.70;;;1.10;;
68310;SDS011;55157;51.036;17.058;2022-07-05T12:45:32;4.75;;;1.52;;
68310;SDS011;55157;51.036;17.058;2022-07-05T12:47:58;6.07;;;1.27;;
68310;SDS011;55157;51.036;17.058;2022-07-05T12:50:24;2.53;;;1.10;;
68310;SDS011;55157;51.036;17.058;2022-07-05T12:53:00;3.75;;;1.60;;
68310;SDS011;55157;51.036;17.058;2022-07-05T12:55:34;6.97;;;1.60;;
68310;SDS011;55157;51.036;17.058;2022-07-05T12:57:59;4.25;;;1.92;;
68310;SDS011;55157;51.036;17.058;2022-07-05T13:00:24;2.95;;;1.52;;
68310;SDS011;55157;51.036;17.058;2022-07-05T13:02:50;4.60;;;1.33;;
68310;SDS011;55157;51.036;17.058;2022-07-05T13:05:19;8.40;;;1.63;;
68310;SDS011;55157;51.036;17.058;2022-07-05T13:07:44;1.90;;;1.30;;
68310;SDS011;55157;51.036;17.058;2022-07-05T13:10:13;6.95;;;1.25;;
68310;SDS011;55157;51.036;17.058;2022-07-05T13:12:40;5.20;;;1.45;;
68310;SDS011;55157;51.036;17.058;2022-07-05T13:15:06;6.45;;;1.65;;
68310;SDS011;55157;51.036;17.058;2022-07-05T13:17:31;2.45;;;1.45;;
68310;SDS011;55157;51.036;17.058;2022-07-05T13:19:56;4.82;;;1.20;;
68310;SDS011;55157;51.036;17.058;2022-07-05T13:22:22;4.18;;;1.40;;
68310;SDS011;55157;51.036;17.058;2022-07-05T13:24:47;3.22;;;1.52;;
68310;SDS011;55157;51.036;17.058;2022-07-05T13:27:13;3.50;;;1.35;;
68310;SDS011;55157;51.036;17.058;2022-07-05T13:29:40;3.63;;;1.67;;
68310;SDS011;55157;51.036;17.058;2022-07-05T13:32:06;2.67;;;1.25;;
68310;SDS011;55157;51.036;17.058;2022-07-05T13:34:31;3.05;;;1.48;;
68310;SDS011;55157;51.036;17.058;2022-07-05T13:36:57;7.10;;;1.58;;
68310;SDS011;55157;51.036;17.058;2022-07-05T13:39:23;4.38;;;1.73;;
68310;SDS011;55157;51.036;17.058;2022-07-05T13:41:48;6.60;;;1.20;;
68310;SDS011;55157;51.036;17.058;2022-07-05T13:44:14;4.60;;;1.02;;
68310;SDS011;55157;51.036;17.058;2022-07-05T13:46:40;5.90;;;1.13;;
68310;SDS011;55157;51.036;17.058;2022-07-05T13:49:06;2.83;;;1.15;;
68310;SDS011;55157;51.036;17.058;2022-07-05T13:51:31;14.37;;;1.50;;
68310;SDS011;55157;51.036;17.058;2022-07-05T13:53:56;4.50;;;1.45;;
68310;SDS011;55157;51.036;17.058;2022-07-05T13:56:21;2.53;;;1.50;;
68310;SDS011;55157;51.036;17.058;2022-07-05T13:58:47;11.55;;;2.00;;
68310;SDS011;55157;51.036;17.058;2022-07-05T14:01:12;6.80;;;1.35;;
68310;SDS011;55157;51.036;17.058;2022-07-05T14:03:39;1.83;;;1.33;;
68310;SDS011;55157;51.036;17.058;2022-07-05T14:06:04;2.42;;;1.10;;
68310;SDS011;55157;51.036;17.058;2022-07-05T14:08:29;1.80;;;1.15;;
68310;SDS011;55157;51.036;17.058;2022-07-05T14:10:55;3.05;;;1.23;;
68310;SDS011;55157;51.036;17.058;2022-07-05T14:13:20;14.75;;;8.02;;
68310;SDS011;55157;51.036;17.058;2022-07-05T14:15:46;9.20;;;4.95;;
68310;SDS011;55157;51.036;17.058;2022-07-05T14:18:11;7.05;;;1.60;;
68310;SDS011;55157;51.036;17.058;2022-07-05T14:20:39;1.92;;;1.13;;
68310;SDS011;55157;51.036;17.058;2022-07-05T14:23:04;4.50;;;1.35;;
68310;SDS011;55157;51.036;17.058;2022-07-05T14:25:29;3.20;;;1.20;;
68310;SDS011;55157;51.036;17.058;2022-07-05T14:27:54;2.17;;;1.13;;
68310;SDS011;55157;51.036;17.058;2022-07-05T14:30:20;1.60;;;1.13;;